Ikan Jebuh — 3EWQ7 — position and weather

sailwx.info

Track history (hours):
 
Tides and Currents Weather Stations Pressure Air Temp Water Temp Dewpoint Dewpoint Depression Visibility Wind Speed Wind Dir Waves Ship Positions

Ikan Jebuh

Last reported at 2017-Sep-22 02:00 UTC. Time now 2017-Nov-24 00:21 UTC.
Position N 29°41' W 094°59'.
Warning: this ship's position is months out of date.

Length 177 m; draft 7.7 m.

Type: Cargo ship. MMSI: 354953000.

Date/timePositionNaut miles runAvg speedWind from/ knotsBaromVisibWave heightAir tempDewpointWater temp
2017-Sep-22 02:00N 29°41' W 094°59'4 8.2
2017-Sep-22 01:30N 29°44' W 095°02'3 6.1
2017-Sep-22 00:58N 29°45' W 095°06'3 5.7
2017-Sep-22 00:30N 29°44' W 095°08'2 3.6
2017-Sep-21 23:59N 29°45' W 095°10'0 0.0
2017-Sep-21 23:26N 29°45' W 095°10'0 0.0
2017-Sep-21 22:59N 29°45' W 095°10'0 0.0
2017-Sep-21 22:05N 29°45' W 095°10'0 0.0
2017-Sep-21 21:47N 29°45' W 095°10'0 0.0
2017-Sep-21 21:29N 29°45' W 095°10'0 0.0
2017-Sep-21 20:53N 29°45' W 095°10'0 0.0
2017-Sep-21 20:23N 29°45' W 095°10'0 0.0
2017-Sep-21 18:59N 29°45' W 095°10'0 0.0
2017-Sep-21 18:29N 29°45' W 095°10'0 0.0
2017-Sep-21 17:41N 29°45' W 095°10'0 0.0
2017-Sep-21 17:23N 29°45' W 095°10'0 0.0
2017-Sep-21 16:59N 29°45' W 095°10'0 0.0
2017-Sep-21 16:29N 29°45' W 095°10'0 0.0
2017-Sep-21 15:47N 29°45' W 095°10'0 0.0
2017-Sep-21 15:17N 29°45' W 095°10'0 0.0
2017-Sep-21 14:59N 29°45' W 095°10'0 0.0
2017-Sep-21 14:23N 29°45' W 095°10'0 0.0
2017-Sep-21 13:53N 29°45' W 095°10'0 0.0
2017-Sep-21 13:29N 29°45' W 095°10'0 0.0
2017-Sep-21 12:59N 29°45' W 095°10'0 0.0
2017-Sep-21 12:29N 29°45' W 095°10'0 0.0
2017-Sep-21 11:41N 29°45' W 095°10'0 0.0
2017-Sep-21 11:20N 29°45' W 095°10'0 0.0
2017-Sep-21 10:47N 29°45' W 095°10'0 0.0
2017-Sep-21 07:11N 29°45' W 095°10'0 0.0
2017-Sep-21 03:29N 29°45' W 095°10'0 0.0
2017-Sep-21 00:47N 29°45' W 095°10'0 0.0
2017-Sep-20 22:38N 29°45' W 095°10'0 0.0
2017-Sep-20 22:17N 29°45' W 095°10'0 0.0
2017-Sep-20 20:17N 29°45' W 095°10'0 0.0
2017-Sep-20 19:41N 29°45' W 095°10'0 0.0
2017-Sep-20 19:23N 29°45' W 095°10'0 0.0
2017-Sep-20 18:59N 29°45' W 095°10'0 0.0
2017-Sep-20 16:47N 29°45' W 095°10'0 0.0
2017-Sep-20 16:29N 29°45' W 095°10'0 0.0
2017-Sep-20 14:41N 29°45' W 095°10'0 0.0
2017-Sep-19 20:47N 29°45' W 095°10'0 0.0
2017-Sep-19 17:35N 29°45' W 095°10'0 0.1
2017-Sep-19 17:29N 29°45' W 095°10'0 0.0
2017-Sep-19 16:53N 29°45' W 095°10'0 0.0
2017-Sep-19 05:20N 29°45' W 095°10'0 0.0
2017-Sep-19 04:50N 29°45' W 095°10'0 0.0
2017-Sep-19 03:23N 29°45' W 095°10'0 0.0
2017-Sep-19 02:59N 29°45' W 095°10'0 0.0
2017-Sep-19 02:29N 29°45' W 095°10'0 0.0
2017-Sep-19 01:59N 29°45' W 095°10'0 0.0
2017-Sep-19 01:26N 29°45' W 095°10'0 0.0
2017-Sep-19 00:53N 29°45' W 095°10'0 0.0
2017-Sep-18 23:47N 29°45' W 095°10'0 0.0
2017-Sep-18 23:17N 29°45' W 095°10'0 0.0
2017-Sep-18 22:53N 29°45' W 095°10'0 0.0
2017-Sep-18 21:47N 29°45' W 095°10'0 0.0
2017-Sep-18 21:17N 29°45' W 095°10'0 0.0
2017-Sep-18 19:56N 29°45' W 095°10'0 0.0
2017-Sep-18 19:29N 29°45' W 095°10'0 0.0
2017-Sep-18 18:53N 29°45' W 095°10'0 0.0
2017-Sep-18 18:23N 29°45' W 095°10'0 0.0
2017-Sep-18 16:17N 29°45' W 095°10'0 0.0
2017-Sep-17 23:53N 29°45' W 095°10'  
2017-Sep-15 10:47N 29°45' W 095°10'0 1.4
2017-Sep-15 10:30N 29°45' W 095°10'3 5.3
2017-Sep-15 10:00N 29°44' W 095°07'3 5.3
2017-Sep-15 09:30N 29°46' W 095°04'4 7.4
2017-Sep-15 09:00N 29°43' W 095°01'5 9.5
2017-Sep-15 08:30N 29°39' W 094°58'611.5
2017-Sep-15 08:00N 29°34' W 094°55'713.2
2017-Sep-15 07:29N 29°28' W 094°51'  
Track history (hours):
 
Tides and Currents Weather Stations Pressure Air Temp Water Temp Dewpoint Dewpoint Depression Visibility Wind Speed Wind Dir Waves Ship Positions

Ikan Jebuh

Last reported at 2017-Sep-22 02:00 UTC. Time now 2017-Nov-24 00:21 UTC.
Position N 29°41' W 094°59'.
Warning: this ship's position is months out of date.

Length 177 m; draft 7.7 m.

Type: Cargo ship. MMSI: 354953000.

Date/timePositionNaut miles runAvg speedWind from/ knotsBaromVisibWave heightAir tempDewpointWater temp
2017-Sep-22 02:00N 29°41' W 094°59'4 8.2
2017-Sep-22 01:30N 29°44' W 095°02'3 6.1
2017-Sep-22 00:58N 29°45' W 095°06'3 5.7
2017-Sep-22 00:30N 29°44' W 095°08'2 3.6
2017-Sep-21 23:59N 29°45' W 095°10'0 0.0
2017-Sep-21 23:26N 29°45' W 095°10'0 0.0
2017-Sep-21 22:59N 29°45' W 095°10'0 0.0
2017-Sep-21 22:05N 29°45' W 095°10'0 0.0
2017-Sep-21 21:47N 29°45' W 095°10'0 0.0
2017-Sep-21 21:29N 29°45' W 095°10'0 0.0
2017-Sep-21 20:53N 29°45' W 095°10'0 0.0
2017-Sep-21 20:23N 29°45' W 095°10'0 0.0
2017-Sep-21 18:59N 29°45' W 095°10'0 0.0
2017-Sep-21 18:29N 29°45' W 095°10'0 0.0
2017-Sep-21 17:41N 29°45' W 095°10'0 0.0
2017-Sep-21 17:23N 29°45' W 095°10'0 0.0
2017-Sep-21 16:59N 29°45' W 095°10'0 0.0
2017-Sep-21 16:29N 29°45' W 095°10'0 0.0
2017-Sep-21 15:47N 29°45' W 095°10'0 0.0
2017-Sep-21 15:17N 29°45' W 095°10'0 0.0
2017-Sep-21 14:59N 29°45' W 095°10'0 0.0
2017-Sep-21 14:23N 29°45' W 095°10'0 0.0
2017-Sep-21 13:53N 29°45' W 095°10'0 0.0
2017-Sep-21 13:29N 29°45' W 095°10'0 0.0
2017-Sep-21 12:59N 29°45' W 095°10'0 0.0
2017-Sep-21 12:29N 29°45' W 095°10'0 0.0
2017-Sep-21 11:41N 29°45' W 095°10'0 0.0
2017-Sep-21 11:20N 29°45' W 095°10'0 0.0
2017-Sep-21 10:47N 29°45' W 095°10'0 0.0
2017-Sep-21 07:11N 29°45' W 095°10'0 0.0
2017-Sep-21 03:29N 29°45' W 095°10'0 0.0
2017-Sep-21 00:47N 29°45' W 095°10'0 0.0
2017-Sep-20 22:38N 29°45' W 095°10'0 0.0
2017-Sep-20 22:17N 29°45' W 095°10'0 0.0
2017-Sep-20 20:17N 29°45' W 095°10'0 0.0
2017-Sep-20 19:41N 29°45' W 095°10'0 0.0
2017-Sep-20 19:23N 29°45' W 095°10'0 0.0
2017-Sep-20 18:59N 29°45' W 095°10'0 0.0
2017-Sep-20 16:47N 29°45' W 095°10'0 0.0
2017-Sep-20 16:29N 29°45' W 095°10'0 0.0
2017-Sep-20 14:41N 29°45' W 095°10'0 0.0
2017-Sep-19 20:47N 29°45' W 095°10'0 0.0
2017-Sep-19 17:35N 29°45' W 095°10'0 0.1
2017-Sep-19 17:29N 29°45' W 095°10'0 0.0
2017-Sep-19 16:53N 29°45' W 095°10'0 0.0
2017-Sep-19 05:20N 29°45' W 095°10'0 0.0
2017-Sep-19 04:50N 29°45' W 095°10'0 0.0
2017-Sep-19 03:23N 29°45' W 095°10'0 0.0
2017-Sep-19 02:59N 29°45' W 095°10'0 0.0
2017-Sep-19 02:29N 29°45' W 095°10'0 0.0
2017-Sep-19 01:59N 29°45' W 095°10'0 0.0
2017-Sep-19 01:26N 29°45' W 095°10'0 0.0
2017-Sep-19 00:53N 29°45' W 095°10'0 0.0
2017-Sep-18 23:47N 29°45' W 095°10'0 0.0
2017-Sep-18 23:17N 29°45' W 095°10'0 0.0
2017-Sep-18 22:53N 29°45' W 095°10'0 0.0
2017-Sep-18 21:47N 29°45' W 095°10'0 0.0
2017-Sep-18 21:17N 29°45' W 095°10'0 0.0
2017-Sep-18 19:56N 29°45' W 095°10'0 0.0
2017-Sep-18 19:29N 29°45' W 095°10'0 0.0
2017-Sep-18 18:53N 29°45' W 095°10'0 0.0
2017-Sep-18 18:23N 29°45' W 095°10'0 0.0
2017-Sep-18 16:17N 29°45' W 095°10'0 0.0
2017-Sep-17 23:53N 29°45' W 095°10'  
2017-Sep-15 10:47N 29°45' W 095°10'0 1.4
2017-Sep-15 10:30N 29°45' W 095°10'3 5.3
2017-Sep-15 10:00N 29°44' W 095°07'3 5.3
2017-Sep-15 09:30N 29°46' W 095°04'4 7.4
2017-Sep-15 09:00N 29°43' W 095°01'5 9.5
2017-Sep-15 08:30N 29°39' W 094°58'611.5
2017-Sep-15 08:00N 29°34' W 094°55'713.2
2017-Sep-15 07:29N 29°28' W 094°51'  

Dump ship's entire track history